Time;durP1;ratioP1;P1;durP2;ratioP2;P2;SDS_P1;SDS_P2;PMS_P1;PMS_P2;Temp;Humidity;BMP_temperature;BMP_pressure;BME280_temperature;BME280_humidity;BME280_pressure;Samples;Min_cycle;Max_cycle;Signal;HPM_P1;HPM_P2
2022/04/05 00:01:29;;;;;;;;;;;;;;;7.26;48.32;99349.09;4369253;32;19995;-77
2022/04/05 00:03:56;;;;;;;;;;;;;;;7.21;48.47;99337.81;4370908;32;20410;-75
2022/04/05 00:06:23;;;;;;;;;;;;;;;7.26;48.53;99331.09;4374625;32;20045;-77
2022/04/05 00:08:49;;;;;;;;;;;;;;;7.04;49.47;99334.03;4386096;32;20008;-74
2022/04/05 00:11:16;;;;;;;;;;;;;;;7.20;48.30;99336.09;4386479;32;20004;-76
2022/04/05 00:13:43;;;;;;;;;;;;;;;7.15;48.80;99342.88;4386150;32;19982;-75
2022/04/05 00:16:10;;;;;;;;;;;;;;;7.21;48.63;99323.28;4385696;32;20008;-73
2022/04/05 00:18:38;;;;;;;;;;;;;;;7.07;48.93;99323.81;4386137;32;20370;-73
2022/04/05 00:21:06;;;;;;;;;;;;;;;7.13;48.33;99311.94;4386162;32;19986;-76
2022/04/05 00:23:32;;;;;;;;;;;;;;;6.97;49.24;99321.03;4384711;32;19983;-77
2022/04/05 00:25:59;;;;;;;;;;;;;;;7.11;49.08;99330.75;4397662;32;19986;-75
2022/04/05 00:28:26;;;;;;;;;;;;;;;7.01;49.27;99318.53;4397237;32;19997;-74
2022/04/05 00:30:53;;;;;;;;;;;;;;;6.87;49.60;99321.66;4415760;32;20046;-75
2022/04/05 00:33:21;;;;;;;;;;;;;;;6.79;49.92;99325.75;4416661;32;19977;-75
2022/04/05 00:35:48;;;;;;;;;;;;;;;6.74;50.62;99314.50;4416286;32;19992;-73
2022/04/05 00:38:16;;;;;;;;;;;;;;;6.88;50.44;99310.53;4415939;32;19990;-77
2022/04/05 00:40:43;;;;;;;;;;;;;;;7.03;50.28;99311.72;4419784;32;20359;-77
2022/04/05 00:43:10;;;;;;;;;;;;;;;7.12;50.45;99306.78;4447356;32;19995;-77
2022/04/05 00:45:36;;;;;;;;;;;;;;;7.20;50.27;99294.91;4447472;32;19988;-77
2022/04/05 00:48:05;;;;;;;;;;;;;;;7.02;51.28;99309.97;4432262;32;19974;-77
2022/04/05 00:50:35;;;;;;;;;;;;;;;6.99;51.47;99306.50;4433492;32;20049;-76
2022/04/05 00:53:04;;;;;;;;;;;;;;;7.12;51.02;99301.63;4445686;32;20042;-73
2022/04/05 00:55:31;;;;;;;;;;;;;;;7.26;50.64;99301.91;4431315;32;20013;-78
2022/04/05 00:57:57;;;;;;;;;;;;;;;7.18;50.75;99291.47;4402722;32;20488;-75
2022/04/05 01:00:24;;;;;;;;;;;;;;;7.19;51.11;99282.91;4433122;32;19981;-74
2022/04/05 01:02:51;;;;;;;;;;;;;;;7.24;51.34;99288.97;4432785;32;20000;-75
2022/04/05 01:05:18;;;;;;;;;;;;;;;7.34;50.47;99292.63;4432943;32;20261;-77
2022/04/05 01:07:46;;;;;;;;;;;;;;;7.39;50.68;99297.03;4431879;32;19981;-75
2022/04/05 01:10:16;;;;;;;;;;;;;;;7.44;50.38;99290.28;4432896;32;19988;-74
2022/04/05 01:12:43;;;;;;;;;;;;;;;7.57;50.24;99285.37;4432031;32;19993;-73
2022/04/05 01:15:11;;;;;;;;;;;;;;;7.64;50.04;99287.22;4432059;32;20036;-74
2022/04/05 01:17:38;;;;;;;;;;;;;;;7.61;50.03;99287.16;4445837;32;19981;-76
2022/04/05 01:20:23;;;;;;;;;;;;;;;7.51;50.30;99280.09;4435158;32;19986;-76
2022/04/05 01:22:51;;;;;;;;;;;;;;;7.23;51.05;99282.97;4432527;32;20358;-74
2022/04/05 01:25:18;;;;;;;;;;;;;;;7.42;50.42;99281.62;4445874;32;20005;-74
2022/04/05 01:27:45;;;;;;;;;;;;;;;7.54;50.40;99282.72;4446743;32;19989;-76
2022/04/05 01:30:14;;;;;;;;;;;;;;;7.62;50.44;99276.00;4433140;32;19985;-73
2022/04/05 01:32:41;;;;;;;;;;;;;;;7.61;50.57;99274.28;4426455;32;20005;-73
2022/04/05 01:35:09;;;;;;;;;;;;;;;7.48;51.12;99280.03;4416303;32;20111;-73
2022/04/05 01:37:37;;;;;;;;;;;;;;;7.65;50.29;99274.34;4415429;32;19986;-74
2022/04/05 01:40:04;;;;;;;;;;;;;;;7.71;50.49;99278.75;4416057;32;19998;-76
2022/04/05 01:42:31;;;;;;;;;;;;;;;7.85;50.20;99272.16;4414214;32;19989;-74
2022/04/05 01:44:58;;;;;;;;;;;;;;;7.84;50.22;99278.13;4415752;32;20363;-75
2022/04/05 01:47:24;;;;;;;;;;;;;;;7.81;50.39;99275.50;4414619;32;20392;-74
2022/04/05 01:49:51;;;;;;;;;;;;;;;7.85;50.54;99267.00;4415557;32;19986;-77
2022/04/05 01:52:18;;;;;;;;;;;;;;;8.10;49.75;99267.41;4414996;32;20004;-76
2022/04/05 01:54:45;;;;;;;;;;;;;;;7.90;50.93;99270.50;4413529;32;20362;-77
2022/04/05 01:57:12;;;;;;;;;;;;;;;8.01;50.50;99272.41;4415672;32;20012;-73
2022/04/05 01:59:39;;;;;;;;;;;;;;;8.02;50.56;99263.84;4414812;32;20023;-76
2022/04/05 02:02:07;;;;;;;;;;;;;;;8.01;50.89;99267.25;4413219;32;19997;-75
2022/04/05 02:04:35;;;;;;;;;;;;;;;8.10;50.66;99262.25;4415076;32;20824;-77
2022/04/05 02:07:07;;;;;;;;;;;;;;;8.00;50.94;99250.06;4423743;32;20009;-74
2022/04/05 02:09:35;;;;;;;;;;;;;;;8.07;50.70;99251.88;4426749;32;20416;-75
2022/04/05 02:12:02;;;;;;;;;;;;;;;8.01;50.83;99251.78;4457598;32;20383;-75
2022/04/05 02:14:30;;;;;;;;;;;;;;;8.21;50.43;99249.53;4457793;32;19988;-75
2022/04/05 02:16:58;;;;;;;;;;;;;;;8.22;50.19;99246.97;4446990;32;20428;-73
2022/04/05 02:19:26;;;;;;;;;;;;;;;8.18;50.58;99249.50;4446961;32;19989;-76
2022/04/05 02:21:53;;;;;;;;;;;;;;;8.38;50.03;99248.97;4446867;32;20004;-75
2022/04/05 02:24:22;;;;;;;;;;;;;;;8.18;50.11;99245.19;4430860;32;20366;-74
2022/04/05 02:26:49;;;;;;;;;;;;;;;8.05;50.99;99253.59;4431509;32;20123;-73
2022/04/05 02:29:16;;;;;;;;;;;;;;;8.29;51.11;99246.22;4447055;32;19993;-75
2022/04/05 02:31:44;;;;;;;;;;;;;;;8.25;50.98;99247.03;4446208;32;20307;-75
2022/04/05 02:34:11;;;;;;;;;;;;;;;8.05;51.61;99238.13;4433755;32;20027;-76
2022/04/05 02:36:39;;;;;;;;;;;;;;;8.03;51.14;99234.62;4431095;32;20004;-74
2022/04/05 02:39:07;;;;;;;;;;;;;;;8.16;50.04;99232.28;4416962;32;19985;-74
2022/04/05 02:41:34;;;;;;;;;;;;;;;8.14;50.25;99227.97;4430764;32;20715;-74
2022/04/05 02:44:01;;;;;;;;;;;;;;;8.26;50.24;99230.69;4430627;32;19978;-77
2022/04/05 02:46:29;;;;;;;;;;;;;;;8.31;50.25;99223.91;4430934;32;20027;-75
2022/04/05 02:48:56;;;;;;;;;;;;;;;8.11;51.47;99227.91;4431305;32;19998;-74
2022/04/05 02:51:23;;;;;;;;;;;;;;;8.36;51.03;99224.88;4430769;32;19998;-73
2022/04/05 02:53:51;;;;;;;;;;;;;;;8.36;50.77;99224.00;4430329;32;20007;-77
2022/04/05 02:56:18;;;;;;;;;;;;;;;8.45;50.08;99224.16;4430633;32;20013;-76
2022/04/05 02:58:48;;;;;;;;;;;;;;;8.37;50.56;99229.16;4431443;32;20745;-77
2022/04/05 03:01:16;;;;;;;;;;;;;;;8.15;51.66;99214.22;4431177;32;20011;-73
2022/04/05 03:03:44;;;;;;;;;;;;;;;8.41;50.40;99206.91;4430494;32;19977;-76
2022/04/05 03:06:11;;;;;;;;;;;;;;;8.57;50.31;99210.56;4430732;32;20005;-75
2022/04/05 03:08:39;;;;;;;;;;;;;;;8.43;50.58;99205.22;4430780;32;19982;-76
2022/04/05 03:11:06;;;;;;;;;;;;;;;8.52;49.99;99207.94;4429322;32;19982;-75
2022/04/05 03:13:33;;;;;;;;;;;;;;;8.57;49.90;99197.66;4429437;32;20004;-76
2022/04/05 03:16:01;;;;;;;;;;;;;;;8.54;49.34;99197.62;4430994;32;19981;-76
2022/04/05 03:18:29;;;;;;;;;;;;;;;8.45;50.21;99189.75;4430074;32;19994;-75
2022/04/05 03:20:56;;;;;;;;;;;;;;;8.46;50.22;99188.94;4430944;32;20007;-75
2022/04/05 03:23:23;;;;;;;;;;;;;;;8.59;50.13;99185.66;4431757;32;20352;-77
2022/04/05 03:25:51;;;;;;;;;;;;;;;8.72;49.71;99187.56;4444705;32;20066;-76
2022/04/05 03:28:20;;;;;;;;;;;;;;;8.31;50.96;99190.41;4444568;32;20019;-77
2022/04/05 03:30:47;;;;;;;;;;;;;;;8.52;50.17;99189.88;4445703;32;19995;-73
2022/04/05 03:33:15;;;;;;;;;;;;;;;8.56;50.02;99185.63;4445157;32;20003;-75
2022/04/05 03:35:42;;;;;;;;;;;;;;;8.56;50.16;99185.63;4445716;32;20040;-77
2022/04/05 03:38:10;;;;;;;;;;;;;;;8.48;50.61;99188.09;4446364;32;19989;-76
2022/04/05 03:40:37;;;;;;;;;;;;;;;8.54;50.31;99182.16;4447606;32;20662;-77
2022/04/05 03:43:07;;;;;;;;;;;;;;;7.86;52.04;99181.12;4434122;32;20037;-77
2022/04/05 03:45:35;;;;;;;;;;;;;;;8.30;50.47;99183.53;4433332;32;19989;-76
2022/04/05 03:48:02;;;;;;;;;;;;;;;8.58;50.30;99183.91;4420471;32;20026;-76
2022/04/05 03:50:31;;;;;;;;;;;;;;;8.51;50.26;99187.25;4448088;32;19989;-76
2022/04/05 03:52:59;;;;;;;;;;;;;;;8.59;50.12;99180.50;4418708;32;20666;-78
2022/04/05 03:55:27;;;;;;;;;;;;;;;8.63;49.92;99181.41;4447254;32;19985;-77
2022/04/05 03:57:56;;;;;;;;;;;;;;;8.76;49.74;99183.31;4433739;32;20008;-73
2022/04/05 04:00:24;;;;;;;;;;;;;;;8.66;49.94;99177.16;4432909;32;20000;-77
2022/04/05 04:02:52;;;;;;;;;;;;;;;8.70;49.95;99178.91;4435689;32;19993;-76
2022/04/05 04:05:20;;;;;;;;;;;;;;;8.65;49.95;99171.97;4428675;32;19973;-78
2022/04/05 04:07:49;;;;;;;;;;;;;;;8.64;49.91;99173.69;4444948;32;20023;-73
2022/04/05 04:10:16;;;;;;;;;;;;;;;8.75;49.63;99172.13;4448053;32;20334;-75
2022/04/05 04:12:50;;;;;;;;;;;;;;;8.78;49.91;99176.47;4445614;32;20003;-74
2022/04/05 04:15:19;;;;;;;;;;;;;;;8.52;50.40;99178.66;4446383;32;19988;-76
2022/04/05 04:17:46;;;;;;;;;;;;;;;8.42;50.72;99174.25;4446357;32;20760;-75
2022/04/05 04:20:15;;;;;;;;;;;;;;;8.54;50.42;99179.56;4440010;32;20298;-73
2022/04/05 04:22:43;;;;;;;;;;;;;;;8.66;50.09;99172.00;4442613;32;19985;-77
2022/04/05 04:25:10;;;;;;;;;;;;;;;8.85;49.73;99173.97;4431690;32;20006;-85
2022/04/05 04:27:37;;;;;;;;;;;;;;;8.88;50.13;99178.28;4430583;32;19989;-84
2022/04/05 04:30:05;;;;;;;;;;;;;;;8.92;49.98;99179.19;4446539;32;19989;-83
2022/04/05 04:32:32;;;;;;;;;;;;;;;8.91;50.16;99180.06;4443452;32;20303;-81
2022/04/05 04:34:59;;;;;;;;;;;;;;;8.92;50.06;99174.03;4446057;32;20716;-78
2022/04/05 04:37:26;;;;;;;;;;;;;;;8.99;49.75;99181.84;4444370;32;20401;-84
2022/04/05 04:39:53;;;;;;;;;;;;;;;8.71;50.83;99178.09;4440248;32;20503;-81
2022/04/05 04:42:20;;;;;;;;;;;;;;;8.85;50.12;99179.13;4445804;32;20027;-82
2022/04/05 04:44:47;;;;;;;;;;;;;;;8.72;50.90;99182.41;4447305;32;20019;-76
2022/04/05 04:47:14;;;;;;;;;;;;;;;8.81;50.65;99181.66;4447153;32;20330;-82
2022/04/05 04:49:40;;;;;;;;;;;;;;;9.09;49.76;99177.66;4445977;32;20015;-83
2022/04/05 04:52:07;;;;;;;;;;;;;;;8.99;49.47;99187.03;4429549;32;20415;-76
2022/04/05 04:54:35;;;;;;;;;;;;;;;8.94;49.49;99187.84;4169285;32;10000427;-78
2022/04/05 04:57:02;;;;;;;;;;;;;;;9.04;49.96;99181.94;4114669;32;10000563;-74
2022/04/05 04:59:29;;;;;;;;;;;;;;;9.05;49.52;99186.22;4445127;32;19982;-80
2022/04/05 05:01:56;;;;;;;;;;;;;;;9.31;49.28;99182.22;4427356;32;19993;-80
2022/04/05 05:04:23;;;;;;;;;;;;;;;9.39;48.96;99186.63;4424782;32;20418;-79
2022/04/05 05:06:51;;;;;;;;;;;;;;;9.29;49.28;99186.50;4428945;32;19989;-79
2022/04/05 05:09:18;;;;;;;;;;;;;;;9.34;49.25;99183.09;4444847;32;20102;-79
2022/04/05 05:11:45;;;;;;;;;;;;;;;9.34;49.61;99177.94;4433769;32;20042;-82
2022/04/05 05:14:11;;;;;;;;;;;;;;;9.08;51.39;99175.94;4423423;32;20025;-76
2022/04/05 05:16:38;;;;;;;;;;;;;;;9.21;50.64;99176.94;4438716;32;20024;-82
2022/04/05 05:19:05;;;;;;;;;;;;;;;9.41;49.60;99179.72;4445887;32;19985;-84
2022/04/05 05:21:32;;;;;;;;;;;;;;;9.42;49.39;99168.56;4444692;32;19986;-81
2022/04/05 05:23:59;;;;;;;;;;;;;;;9.58;48.73;99173.03;4442899;32;20040;-80
2022/04/05 05:26:26;;;;;;;;;;;;;;;9.59;47.81;99169.56;4454971;32;19990;-79
2022/04/05 05:28:53;;;;;;;;;;;;;;;9.75;47.68;99171.44;4441901;32;19985;-81
2022/04/05 05:31:20;;;;;;;;;;;;;;;9.63;48.51;99168.75;4439604;32;20008;-79
2022/04/05 05:33:46;;;;;;;;;;;;;;;9.80;48.66;99173.22;4446337;32;20431;-80
2022/04/05 05:36:13;;;;;;;;;;;;;;;9.87;47.87;99170.69;4445680;32;20016;-80
2022/04/05 05:38:40;;;;;;;;;;;;;;;9.97;47.76;99176.78;4446782;32;19981;-82
2022/04/05 05:41:07;;;;;;;;;;;;;;;10.00;47.64;99182.00;4445567;32;20029;-80
2022/04/05 05:43:34;;;;;;;;;;;;;;;9.90;47.80;99170.72;4446606;32;19985;-81
2022/04/05 05:46:03;;;;;;;;;;;;;;;9.98;47.64;99173.34;4445517;32;20497;-81
2022/04/05 05:48:30;;;;;;;;;;;;;;;10.12;47.52;99176.91;4446546;32;20030;-82
2022/04/05 05:50:58;;;;;;;;;;;;;;;10.09;47.64;99184.66;4445179;32;21217;-80
2022/04/05 05:53:25;;;;;;;;;;;;;;;10.15;47.54;99192.44;4444677;32;19981;-81
2022/04/05 05:55:52;;;;;;;;;;;;;;;10.13;47.72;99188.97;4445864;32;20009;-82
2022/04/05 05:58:19;;;;;;;;;;;;;;;10.19;47.24;99194.19;4445762;32;19993;-85
2022/04/05 06:00:46;;;;;;;;;;;;;;;10.16;47.46;99204.50;4434620;32;20008;-79
2022/04/05 06:03:13;;;;;;;;;;;;;;;10.26;47.48;99205.47;4445881;32;19985;-81
2022/04/05 06:05:40;;;;;;;;;;;;;;;10.22;47.49;99208.87;4445672;32;19985;-79
2022/04/05 06:08:07;;;;;;;;;;;;;;;10.34;47.72;99197.75;4446767;32;20030;-80
2022/04/05 06:10:34;;;;;;;;;;;;;;;10.40;47.08;99198.69;4445511;32;19981;-77
2022/04/05 06:13:01;;;;;;;;;;;;;;;10.59;46.83;99198.78;4444561;32;20021;-79
2022/04/05 06:15:29;;;;;;;;;;;;;;;10.68;46.15;99204.00;4445599;32;19998;-75
2022/04/05 06:18:00;;;;;;;;;;;;;;;10.70;46.05;99204.91;4420095;32;19984;-77
2022/04/05 06:20:28;;;;;;;;;;;;;;;10.68;46.88;99199.69;4445809;32;19993;-80
2022/04/05 06:22:56;;;;;;;;;;;;;;;10.67;47.27;99207.47;4418764;32;20372;-79
2022/04/05 06:25:24;;;;;;;;;;;;;;;10.73;46.19;99207.50;4445822;32;19992;-80
2022/04/05 06:27:51;;;;;;;;;;;;;;;10.78;45.71;99197.16;4429510;32;20045;-82
2022/04/05 06:30:18;;;;;;;;;;;;;;;10.79;45.68;99196.31;4431461;32;20041;-80
2022/04/05 06:32:46;;;;;;;;;;;;;;;10.91;44.61;99201.53;4444478;32;20018;-81
2022/04/05 06:35:13;;;;;;;;;;;;;;;11.14;44.82;99193.87;4446088;32;19981;-80
2022/04/05 06:37:44;;;;;;;;;;;;;;;11.25;44.51;99188.72;4444418;32;20007;-82
2022/04/05 06:40:11;;;;;;;;;;;;;;;11.33;44.70;99189.59;4445229;32;19993;-80
2022/04/05 06:42:43;;;;;;;;;;;;;;;11.37;44.92;99187.00;4444479;32;20026;-77
2022/04/05 06:45:11;;;;;;;;;;;;;;;11.48;44.76;99194.81;4445359;32;19984;-77
2022/04/05 06:47:38;;;;;;;;;;;;;;;10.98;45.44;99186.91;4445963;32;19997;-81
2022/04/05 06:50:07;;;;;;;;;;;;;;;11.45;44.85;99194.78;4445781;32;19993;-82
2022/04/05 06:52:35;;;;;;;;;;;;;;;11.50;45.31;99185.31;4439920;32;19981;-79
2022/04/05 06:55:03;;;;;;;;;;;;;;;10.68;46.93;99199.69;4431334;32;19985;-83
2022/04/05 06:57:30;;;;;;;;;;;;;;;10.85;46.47;99191.16;4445761;32;19993;-80
2022/04/05 06:59:57;;;;;;;;;;;;;;;11.52;45.99;99186.19;4445897;32;20005;-79
2022/04/05 07:02:24;;;;;;;;;;;;;;;12.50;43.72;99185.31;4445755;32;19997;-80
2022/04/05 07:04:50;;;;;;;;;;;;;;;12.38;44.56;99178.44;4446075;32;20930;-77
2022/04/05 07:07:17;;;;;;;;;;;;;;;11.68;46.07;99175.81;4445562;32;19985;-82
2022/04/05 07:09:44;;;;;;;;;;;;;;;12.18;43.87;99178.44;4444659;32;19981;-77
2022/04/05 07:12:11;;;;;;;;;;;;;;;12.01;44.05;99188.84;4445458;32;19977;-77
2022/04/05 07:14:39;;;;;;;;;;;;;;;12.07;44.99;99194.03;4443119;32;20045;-76
2022/04/05 07:17:06;;;;;;;;;;;;;;;12.38;43.96;99191.41;4445432;32;20035;-77
2022/04/05 07:19:33;;;;;;;;;;;;;;;12.69;43.22;99196.50;4445861;32;20046;-75
2022/04/05 07:22:00;;;;;;;;;;;;;;;12.59;42.99;99189.62;4443686;32;20039;-78
2022/04/05 07:24:27;;;;;;;;;;;;;;;12.93;42.45;99186.06;4445333;32;19974;-79
2022/04/05 07:26:55;;;;;;;;;;;;;;;13.13;41.59;99179.91;4445036;32;20043;-80
2022/04/05 07:29:21;;;;;;;;;;;;;;;13.14;41.15;99176.41;4442392;32;19984;-75
2022/04/05 07:31:48;;;;;;;;;;;;;;;13.31;40.92;99185.03;4445619;32;20053;-75
2022/04/05 07:34:15;;;;;;;;;;;;;;;13.12;42.29;99178.19;4431188;32;20761;-82
2022/04/05 07:36:42;;;;;;;;;;;;;;;13.40;41.46;99172.00;4445301;32;20473;-77
2022/04/05 07:39:09;;;;;;;;;;;;;;;13.37;40.97;99161.63;4444526;32;19997;-81
2022/04/05 07:41:36;;;;;;;;;;;;;;;13.38;40.37;99168.53;4426896;32;20025;-79
2022/04/05 07:44:03;;;;;;;;;;;;;;;13.42;40.53;99170.22;4430008;32;19986;-80
2022/04/05 07:46:30;;;;;;;;;;;;;;;13.25;42.41;99161.69;4430226;32;19985;-80
2022/04/05 07:48:57;;;;;;;;;;;;;;;13.55;40.28;99164.94;4418808;32;20038;-81
2022/04/05 07:51:23;;;;;;;;;;;;;;;13.82;39.78;99169.09;4444726;32;20405;-82
2022/04/05 07:53:51;;;;;;;;;;;;;;;13.36;40.93;99178.06;4434579;32;19973;-78
2022/04/05 07:56:17;;;;;;;;;;;;;;;13.61;39.84;99172.72;4445264;32;20013;-79
2022/04/05 07:58:44;;;;;;;;;;;;;;;13.60;40.45;99176.19;4445259;32;19984;-77
2022/04/05 08:01:11;;;;;;;;;;;;;;;13.13;40.90;99179.91;4445430;32;19998;-79
2022/04/05 08:03:38;;;;;;;;;;;;;;;12.74;42.59;99184.41;4445554;32;19981;-79
2022/04/05 08:06:06;;;;;;;;;;;;;;;13.23;41.44;99184.19;4445227;32;20338;-79
2022/04/05 08:08:32;;;;;;;;;;;;;;;12.83;43.43;99181.78;4445098;32;20024;-81
2022/04/05 08:11:20;;;;;;;;;;;;;;;13.03;43.64;99179.09;4445271;32;20419;-76
2022/04/05 08:13:47;;;;;;;;;;;;;;;12.97;43.43;99181.69;4442223;32;19991;-79
2022/04/05 08:16:14;;;;;;;;;;;;;;;13.47;41.93;99168.47;4445030;32;20016;-83
2022/04/05 08:18:41;;;;;;;;;;;;;;;13.82;40.70;99169.97;4444797;32;20003;-78
2022/04/05 08:21:08;;;;;;;;;;;;;;;14.00;40.81;99176.75;4444761;32;20028;-78
2022/04/05 08:23:34;;;;;;;;;;;;;;;13.87;41.44;99173.38;4439597;32;19995;-76
2022/04/05 08:26:02;;;;;;;;;;;;;;;13.32;41.65;99173.75;4427680;32;20009;-76
2022/04/05 08:28:29;;;;;;;;;;;;;;;13.56;39.66;99177.06;4447156;32;20469;-76
2022/04/05 08:30:56;;;;;;;;;;;;;;;13.10;40.74;99177.31;4407122;32;19981;-77
2022/04/05 08:33:23;;;;;;;;;;;;;;;13.33;40.34;99180.69;4444763;32;20314;-81
2022/04/05 08:35:50;;;;;;;;;;;;;;;13.39;40.37;99185.84;4432540;32;19981;-77
2022/04/05 08:38:17;;;;;;;;;;;;;;;13.53;39.94;99175.38;4447583;32;19993;-80
2022/04/05 08:40:44;;;;;;;;;;;;;;;12.76;40.25;99172.25;4447408;32;19990;-82
2022/04/05 08:43:11;;;;;;;;;;;;;;;13.27;39.35;99180.72;4446876;32;19983;-78
2022/04/05 08:45:38;;;;;;;;;;;;;;;13.30;39.61;99180.69;4432082;32;20019;-80
2022/04/05 08:48:05;;;;;;;;;;;;;;;12.85;38.46;99172.22;4447115;32;20274;-79
2022/04/05 08:50:32;;;;;;;;;;;;;;;13.13;39.09;99172.09;4426685;32;19993;-84
2022/04/05 08:53:00;;;;;;;;;;;;;;;13.19;39.41;99172.06;4443324;32;20295;-80
2022/04/05 08:55:35;;;;;;;;;;;;;;;13.03;39.41;99177.34;4432050;32;20691;-82
2022/04/05 08:58:03;;;;;;;;;;;;;;;13.45;38.67;99170.22;4441283;32;19985;-84
2022/04/05 09:00:31;;;;;;;;;;;;;;;13.62;38.84;99171.84;4447130;32;20000;-84
2022/04/05 09:02:59;;;;;;;;;;;;;;;13.22;39.78;99167.72;4432797;32;20169;-81
2022/04/05 09:05:30;;;;;;;;;;;;;;;13.09;39.60;99167.81;4432383;32;19981;-79
2022/04/05 09:08:13;;;;;;;;;;;;;;;13.40;41.57;99160.72;4447075;32;20008;-80
2022/04/05 09:10:41;;;;;;;;;;;;;;;13.26;40.21;99173.78;4447188;32;20038;-82
2022/04/05 09:13:11;;;;;;;;;;;;;;;13.29;40.28;99173.78;4433240;32;19985;-77
2022/04/05 09:15:40;;;;;;;;;;;;;;;13.25;40.46;99172.09;4447200;32;20021;-78
2022/04/05 09:18:08;;;;;;;;;;;;;;;12.97;42.49;99174.78;4446460;32;20086;-79
2022/04/05 09:20:45;;;;;;;;;;;;;;;13.29;41.01;99173.78;4447018;32;19977;-77
2022/04/05 09:23:25;;;;;;;;;;;;;;;13.59;41.06;99172.75;4444963;32;20004;-79
2022/04/05 09:25:55;;;;;;;;;;;;;;;13.63;41.31;99170.97;4446221;32;20009;-81
2022/04/05 09:28:30;;;;;;;;;;;;;;;13.01;42.38;99167.81;4439688;32;20330;-78
2022/04/05 09:30:58;;;;;;;;;;;;;;;13.18;42.88;99171.22;4429707;32;19973;-78
2022/04/05 09:33:27;;;;;;;;;;;;;;;13.41;42.32;99178.91;4446080;32;20048;-77
2022/04/05 09:36:01;;;;;;;;;;;;;;;12.89;43.33;99179.16;4446362;32;20060;-76
2022/04/05 09:38:28;;;;;;;;;;;;;;;12.68;44.36;99174.03;4432273;32;19981;-78
2022/04/05 09:41:07;;;;;;;;;;;;;;;12.93;43.72;99180.00;4446468;32;19997;-77
2022/04/05 09:43:34;;;;;;;;;;;;;;;13.32;43.57;99178.97;4444854;32;19973;-81
2022/04/05 09:46:02;;;;;;;;;;;;;;;13.23;43.06;99173.78;4431786;32;19989;-82
2022/04/05 09:48:30;;;;;;;;;;;;;;;13.56;42.44;99177.06;4446894;32;19985;-80
2022/04/05 09:50:58;;;;;;;;;;;;;;;13.41;43.24;99180.66;4435005;32;20030;-79
2022/04/05 09:53:26;;;;;;;;;;;;;;;13.19;43.36;99174.69;4443916;32;20027;-83
2022/04/05 09:56:02;;;;;;;;;;;;;;;13.03;44.12;99172.16;4440926;32;20040;-79
2022/04/05 09:58:30;;;;;;;;;;;;;;;13.21;42.62;99175.53;4424768;32;20307;-79
2022/04/05 10:01:03;;;;;;;;;;;;;;;12.91;43.72;99167.00;4422853;32;20370;-80
2022/04/05 10:03:30;;;;;;;;;;;;;;;13.12;42.08;99170.37;4424107;32;19969;-83
2022/04/05 10:05:56;;;;;;;;;;;;;;;12.96;43.21;99170.47;4439438;32;20015;-78
2022/04/05 10:08:23;;;;;;;;;;;;;;;12.98;43.42;99168.69;3803468;32;10001187;-82
2022/04/05 10:10:50;;;;;;;;;;;;;;;12.89;43.59;99173.97;4421724;32;20784;-77
2022/04/05 10:13:19;;;;;;;;;;;;;;;12.64;44.78;99177.50;4420260;32;20464;-84
2022/04/05 10:15:49;;;;;;;;;;;;;;;12.41;45.38;99181.03;4431963;32;19989;-78
2022/04/05 10:18:17;;;;;;;;;;;;;;;12.20;44.53;99165.47;4432703;32;19977;-82
2022/04/05 10:20:43;;;;;;;;;;;;;;;12.76;43.89;99167.94;4432363;32;20882;-77
2022/04/05 10:23:10;;;;;;;;;;;;;;;12.98;43.53;99168.69;4432509;32;19989;-78
2022/04/05 10:25:39;;;;;;;;;;;;;;;12.85;44.60;99167.03;4431864;32;20017;-80
2022/04/05 10:28:06;;;;;;;;;;;;;;;13.32;44.04;99158.16;4432351;32;19991;-78
2022/04/05 10:30:36;;;;;;;;;;;;;;;13.67;43.84;99159.66;4432454;32;20395;-85
2022/04/05 10:33:12;;;;;;;;;;;;;;;13.35;44.41;99163.34;4417051;32;20019;-80
2022/04/05 10:35:43;;;;;;;;;;;;;;;13.87;44.75;99157.75;4431001;32;20024;-79
2022/04/05 10:38:14;;;;;;;;;;;;;;;14.11;43.54;99161.06;4426948;32;20022;-82
2022/04/05 10:40:41;;;;;;;;;;;;;;;14.71;42.13;99147.41;4444604;32;20039;-77
2022/04/05 10:43:16;;;;;;;;;;;;;;;14.32;41.79;99153.00;4444096;32;20048;-82
2022/04/05 10:45:43;;;;;;;;;;;;;;;14.83;41.38;99150.72;4446197;32;20460;-83
2022/04/05 10:48:21;;;;;;;;;;;;;;;14.97;40.59;99149.72;4443993;32;19969;-82
2022/04/05 10:51:00;;;;;;;;;;;;;;;14.67;41.26;99156.16;4433573;32;20571;-78
2022/04/05 10:53:34;;;;;;;;;;;;;;;15.05;42.63;99158.28;4446287;32;20796;-79
2022/04/05 10:56:04;;;;;;;;;;;;;;;15.10;39.99;99148.66;4446463;32;19986;-76
2022/04/05 10:58:35;;;;;;;;;;;;;;;15.15;38.86;99144.25;4445692;32;19981;-77
2022/04/05 11:01:20;;;;;;;;;;;;;;;15.53;38.03;99142.81;4445722;32;20000;-84
2022/04/05 11:04:07;;;;;;;;;;;;;;;15.35;39.61;99142.22;4445277;32;20360;-84
2022/04/05 11:06:53;;;;;;;;;;;;;;;15.40;38.47;99141.28;4445236;32;20347;-77
2022/04/05 11:09:23;;;;;;;;;;;;;;;15.88;38.49;99152.75;4446748;32;19965;-82
2022/04/05 11:11:57;;;;;;;;;;;;;;;16.69;34.87;99137.34;4444044;32;19973;-83
2022/04/05 11:14:35;;;;;;;;;;;;;;;16.27;37.03;99140.75;4426726;32;20453;-81
2022/04/05 11:17:05;;;;;;;;;;;;;;;16.93;34.49;99151.69;4438321;32;20004;-84
2022/04/05 11:19:36;;;;;;;;;;;;;;;16.82;34.93;99143.22;4439520;32;20001;-77
2022/04/05 11:22:07;;;;;;;;;;;;;;;17.12;33.16;99153.03;4432198;32;20866;-78
2022/04/05 11:24:53;;;;;;;;;;;;;;;16.88;34.54;99154.41;4418921;32;20026;-80
2022/04/05 11:27:32;;;;;;;;;;;;;;;16.40;35.27;99156.19;4438062;32;19985;-80
2022/04/05 11:30:18;;;;;;;;;;;;;;;16.37;36.13;99156.22;4440399;32;20110;-82
2022/04/05 11:33:04;;;;;;;;;;;;;;;16.42;35.49;99154.41;4434705;32;20306;-76
2022/04/05 11:35:43;;;;;;;;;;;;;;;16.27;35.41;99156.44;4436974;32;19996;-78
2022/04/05 11:38:16;;;;;;;;;;;;;;;16.27;36.35;99156.44;4433362;32;20753;-79
2022/04/05 11:40:45;;;;;;;;;;;;;;;16.76;35.20;99164.25;4436721;32;19983;-79
2022/04/05 11:43:27;;;;;;;;;;;;;;;16.35;37.97;99163.25;4436751;32;19981;-79
2022/04/05 11:45:55;;;;;;;;;;;;;;;16.09;37.82;99156.75;4433331;32;19997;-82
2022/04/05 11:48:26;;;;;;;;;;;;;;;16.41;36.96;99157.91;4417021;32;20011;-80
2022/04/05 11:50:53;;;;;;;;;;;;;;;16.50;37.27;99162.97;4396216;32;20011;-80
2022/04/05 11:53:21;;;;;;;;;;;;;;;16.07;39.61;99162.87;4433668;32;20044;-79
2022/04/05 11:56:04;;;;;;;;;;;;;;;16.04;38.59;99169.87;4430260;32;19993;-81
2022/04/05 11:58:34;;;;;;;;;;;;;;;15.65;40.69;99166.12;4440646;32;20024;-75
2022/04/05 12:01:03;;;;;;;;;;;;;;;16.02;39.74;99165.59;4440296;32;19976;-79
2022/04/05 12:03:30;;;;;;;;;;;;;;;16.32;38.50;99163.31;4441470;32;20000;-82
2022/04/05 12:05:57;;;;;;;;;;;;;;;16.00;40.07;99167.34;4425824;32;19989;-76
2022/04/05 12:08:24;;;;;;;;;;;;;;;16.20;39.39;99165.25;4424518;32;19989;-75
2022/04/05 12:10:51;;;;;;;;;;;;;;;15.41;41.74;99158.66;4427118;32;19981;-75
2022/04/05 12:13:25;;;;;;;;;;;;;;;16.27;38.84;99156.44;4441079;32;20032;-79
2022/04/05 12:15:57;;;;;;;;;;;;;;;16.43;38.52;99150.91;4439961;32;19997;-78
2022/04/05 12:18:24;;;;;;;;;;;;;;;15.94;39.13;99141.34;4442699;32;19985;-77
2022/04/05 12:20:57;;;;;;;;;;;;;;;15.95;41.64;99143.06;4439913;32;19974;-73
2022/04/05 12:23:28;;;;;;;;;;;;;;;15.70;40.30;99145.22;4436654;32;20051;-73
2022/04/05 12:26:13;;;;;;;;;;;;;;;15.72;40.09;99141.69;4423406;32;19988;-72
2022/04/05 12:28:45;;;;;;;;;;;;;;;16.19;39.53;99145.25;4443676;32;20049;-78
2022/04/05 12:31:13;;;;;;;;;;;;;;;16.20;39.24;99146.97;4445835;32;19973;-79
2022/04/05 12:33:42;;;;;;;;;;;;;;;16.26;37.49;99146.00;4444052;32;20334;-76
2022/04/05 12:36:09;;;;;;;;;;;;;;;15.99;38.95;99144.75;4445512;32;20011;-77
2022/04/05 12:38:36;;;;;;;;;;;;;;;16.08;38.64;99144.59;4445691;32;20004;-82
2022/04/05 12:41:03;;;;;;;;;;;;;;;16.16;38.98;99145.31;4430369;32;20306;-75
2022/04/05 12:43:30;;;;;;;;;;;;;;;16.05;38.61;99134.19;4438128;32;19981;-77
2022/04/05 12:46:07;;;;;;;;;;;;;;;16.04;39.84;99133.31;4438490;32;20047;-77
2022/04/05 12:48:34;;;;;;;;;;;;;;;16.39;38.72;99133.56;4436125;32;20346;-81
2022/04/05 12:51:00;;;;;;;;;;;;;;;16.48;37.57;99134.25;4438767;32;20019;-75
2022/04/05 12:53:28;;;;;;;;;;;;;;;16.74;37.75;99135.50;4435650;32;20025;-73
2022/04/05 12:55:57;;;;;;;;;;;;;;;16.81;37.43;99141.47;4438472;32;20330;-83
2022/04/05 12:58:45;;;;;;;;;;;;;;;16.54;37.87;99137.66;4440157;32;20000;-74